sensor_id;sensor_type;location;lat;lon;timestamp;P1;durP1;ratioP1;P2;durP2;ratioP2
28838;SDS011;15971;50.772;6.100;2022-10-31T00:01:22;10.73;;;5.78;;
28838;SDS011;15971;50.772;6.100;2022-10-31T00:03:56;19.42;;;6.90;;
28838;SDS011;15971;50.772;6.100;2022-10-31T00:06:22;12.85;;;5.47;;
28838;SDS011;15971;50.772;6.100;2022-10-31T00:08:52;13.90;;;5.70;;
28838;SDS011;15971;50.772;6.100;2022-10-31T00:11:19;15.27;;;6.47;;
28838;SDS011;15971;50.772;6.100;2022-10-31T00:13:45;23.92;;;7.57;;
28838;SDS011;15971;50.772;6.100;2022-10-31T00:16:17;15.60;;;6.72;;
28838;SDS011;15971;50.772;6.100;2022-10-31T00:18:47;11.38;;;5.60;;
28838;SDS011;15971;50.772;6.100;2022-10-31T00:21:14;15.00;;;6.30;;
28838;SDS011;15971;50.772;6.100;2022-10-31T00:23:40;12.48;;;6.32;;
28838;SDS011;15971;50.772;6.100;2022-10-31T00:26:05;17.88;;;6.00;;
28838;SDS011;15971;50.772;6.100;2022-10-31T00:28:31;18.20;;;6.25;;
28838;SDS011;15971;50.772;6.100;2022-10-31T00:31:01;11.80;;;6.18;;
28838;SDS011;15971;50.772;6.100;2022-10-31T00:33:28;13.73;;;6.03;;
28838;SDS011;15971;50.772;6.100;2022-10-31T00:35:54;15.93;;;6.65;;
28838;SDS011;15971;50.772;6.100;2022-10-31T00:38:20;17.20;;;6.40;;
28838;SDS011;15971;50.772;6.100;2022-10-31T00:40:45;15.68;;;5.68;;
28838;SDS011;15971;50.772;6.100;2022-10-31T00:43:11;20.90;;;6.95;;
28838;SDS011;15971;50.772;6.100;2022-10-31T00:45:37;17.02;;;6.18;;
28838;SDS011;15971;50.772;6.100;2022-10-31T00:48:02;23.77;;;6.28;;
28838;SDS011;15971;50.772;6.100;2022-10-31T00:50:28;17.13;;;6.80;;
28838;SDS011;15971;50.772;6.100;2022-10-31T00:52:54;12.75;;;5.85;;
28838;SDS011;15971;50.772;6.100;2022-10-31T00:55:19;14.27;;;5.65;;
28838;SDS011;15971;50.772;6.100;2022-10-31T00:57:48;13.02;;;6.43;;
28838;SDS011;15971;50.772;6.100;2022-10-31T01:00:14;18.35;;;7.68;;
28838;SDS011;15971;50.772;6.100;2022-10-31T01:02:40;19.50;;;6.10;;
28838;SDS011;15971;50.772;6.100;2022-10-31T01:05:05;15.85;;;6.55;;
28838;SDS011;15971;50.772;6.100;2022-10-31T01:07:31;20.75;;;6.95;;
28838;SDS011;15971;50.772;6.100;2022-10-31T01:10:00;16.80;;;6.45;;
28838;SDS011;15971;50.772;6.100;2022-10-31T01:12:26;16.75;;;7.03;;
28838;SDS011;15971;50.772;6.100;2022-10-31T01:14:52;12.65;;;6.63;;
28838;SDS011;15971;50.772;6.100;2022-10-31T01:17:17;12.73;;;6.15;;
28838;SDS011;15971;50.772;6.100;2022-10-31T01:19:43;15.50;;;6.28;;
28838;SDS011;15971;50.772;6.100;2022-10-31T01:22:09;17.40;;;6.20;;
28838;SDS011;15971;50.772;6.100;2022-10-31T01:24:35;14.15;;;6.90;;
28838;SDS011;15971;50.772;6.100;2022-10-31T01:27:01;25.35;;;7.00;;
28838;SDS011;15971;50.772;6.100;2022-10-31T01:29:26;17.23;;;7.07;;
28838;SDS011;15971;50.772;6.100;2022-10-31T01:31:52;15.63;;;7.68;;
28838;SDS011;15971;50.772;6.100;2022-10-31T01:34:17;18.63;;;7.18;;
28838;SDS011;15971;50.772;6.100;2022-10-31T01:36:44;12.18;;;6.13;;
28838;SDS011;15971;50.772;6.100;2022-10-31T01:39:13;16.58;;;6.60;;
28838;SDS011;15971;50.772;6.100;2022-10-31T01:41:41;16.48;;;6.20;;
28838;SDS011;15971;50.772;6.100;2022-10-31T01:46:45;18.20;;;6.18;;
28838;SDS011;15971;50.772;6.100;2022-10-31T01:49:18;23.02;;;7.75;;
28838;SDS011;15971;50.772;6.100;2022-10-31T01:52:00;18.38;;;6.70;;
28838;SDS011;15971;50.772;6.100;2022-10-31T01:57:02;17.60;;;6.82;;
28838;SDS011;15971;50.772;6.100;2022-10-31T01:59:31;15.50;;;6.25;;
28838;SDS011;15971;50.772;6.100;2022-10-31T02:02:01;14.63;;;6.35;;
28838;SDS011;15971;50.772;6.100;2022-10-31T02:04:26;12.98;;;6.07;;
28838;SDS011;15971;50.772;6.100;2022-10-31T02:07:03;13.70;;;6.75;;
28838;SDS011;15971;50.772;6.100;2022-10-31T02:09:34;12.18;;;6.38;;
28838;SDS011;15971;50.772;6.100;2022-10-31T02:12:01;16.25;;;5.47;;
28838;SDS011;15971;50.772;6.100;2022-10-31T02:14:28;13.93;;;6.63;;
28838;SDS011;15971;50.772;6.100;2022-10-31T02:16:55;20.13;;;6.60;;
28838;SDS011;15971;50.772;6.100;2022-10-31T02:19:40;13.55;;;6.75;;
28838;SDS011;15971;50.772;6.100;2022-10-31T02:22:13;20.95;;;6.90;;
28838;SDS011;15971;50.772;6.100;2022-10-31T02:27:36;14.50;;;7.03;;
28838;SDS011;15971;50.772;6.100;2022-10-31T02:30:10;22.75;;;6.88;;
28838;SDS011;15971;50.772;6.100;2022-10-31T02:35:30;19.50;;;6.80;;
28838;SDS011;15971;50.772;6.100;2022-10-31T02:38:22;20.23;;;7.40;;
28838;SDS011;15971;50.772;6.100;2022-10-31T02:41:03;17.15;;;6.22;;
28838;SDS011;15971;50.772;6.100;2022-10-31T02:49:42;14.15;;;6.50;;
28838;SDS011;15971;50.772;6.100;2022-10-31T02:52:16;15.30;;;6.03;;
28838;SDS011;15971;50.772;6.100;2022-10-31T02:54:47;18.45;;;6.40;;
28838;SDS011;15971;50.772;6.100;2022-10-31T02:57:13;15.80;;;6.32;;
28838;SDS011;15971;50.772;6.100;2022-10-31T02:59:46;16.27;;;6.82;;
28838;SDS011;15971;50.772;6.100;2022-10-31T03:02:29;17.80;;;7.53;;
28838;SDS011;15971;50.772;6.100;2022-10-31T03:13:20;19.70;;;6.43;;
28838;SDS011;15971;50.772;6.100;2022-10-31T03:18:55;14.05;;;6.90;;
28838;SDS011;15971;50.772;6.100;2022-10-31T03:21:48;17.77;;;6.63;;
28838;SDS011;15971;50.772;6.100;2022-10-31T03:24:28;16.60;;;6.30;;
28838;SDS011;15971;50.772;6.100;2022-10-31T03:26:59;15.50;;;6.60;;
28838;SDS011;15971;50.772;6.100;2022-10-31T03:29:27;13.25;;;6.70;;
28838;SDS011;15971;50.772;6.100;2022-10-31T03:31:57;13.93;;;6.45;;
28838;SDS011;15971;50.772;6.100;2022-10-31T03:34:26;11.20;;;6.35;;
28838;SDS011;15971;50.772;6.100;2022-10-31T03:36:55;18.80;;;6.60;;
28838;SDS011;15971;50.772;6.100;2022-10-31T03:39:24;18.67;;;6.57;;
28838;SDS011;15971;50.772;6.100;2022-10-31T03:41:59;15.50;;;6.35;;
28838;SDS011;15971;50.772;6.100;2022-10-31T03:44:30;15.35;;;6.22;;
28838;SDS011;15971;50.772;6.100;2022-10-31T03:46:58;15.93;;;7.00;;
28838;SDS011;15971;50.772;6.100;2022-10-31T03:49:24;14.48;;;6.50;;
28838;SDS011;15971;50.772;6.100;2022-10-31T03:51:54;20.30;;;7.13;;
28838;SDS011;15971;50.772;6.100;2022-10-31T03:57:06;14.05;;;6.40;;
28838;SDS011;15971;50.772;6.100;2022-10-31T04:00:03;12.90;;;7.28;;
28838;SDS011;15971;50.772;6.100;2022-10-31T04:02:33;15.85;;;6.90;;
28838;SDS011;15971;50.772;6.100;2022-10-31T04:05:03;18.63;;;7.18;;
28838;SDS011;15971;50.772;6.100;2022-10-31T04:07:32;19.08;;;8.13;;
28838;SDS011;15971;50.772;6.100;2022-10-31T04:10:02;26.52;;;9.25;;
28838;SDS011;15971;50.772;6.100;2022-10-31T04:12:31;17.98;;;9.35;;
28838;SDS011;15971;50.772;6.100;2022-10-31T04:14:59;16.63;;;9.25;;
28838;SDS011;15971;50.772;6.100;2022-10-31T04:17:28;21.25;;;9.20;;
28838;SDS011;15971;50.772;6.100;2022-10-31T04:19:58;23.67;;;10.07;;
28838;SDS011;15971;50.772;6.100;2022-10-31T04:22:25;27.30;;;10.35;;
28838;SDS011;15971;50.772;6.100;2022-10-31T04:24:51;18.42;;;9.32;;
28838;SDS011;15971;50.772;6.100;2022-10-31T04:27:16;19.20;;;10.20;;
28838;SDS011;15971;50.772;6.100;2022-10-31T04:29:42;21.55;;;10.18;;
28838;SDS011;15971;50.772;6.100;2022-10-31T04:32:07;23.35;;;9.80;;
28838;SDS011;15971;50.772;6.100;2022-10-31T04:34:33;18.95;;;10.68;;
28838;SDS011;15971;50.772;6.100;2022-10-31T04:36:58;25.23;;;10.80;;
28838;SDS011;15971;50.772;6.100;2022-10-31T04:39:24;24.85;;;10.38;;
28838;SDS011;15971;50.772;6.100;2022-10-31T04:41:49;20.70;;;11.23;;
28838;SDS011;15971;50.772;6.100;2022-10-31T04:44:15;20.58;;;10.55;;
28838;SDS011;15971;50.772;6.100;2022-10-31T04:46:41;23.65;;;11.13;;
28838;SDS011;15971;50.772;6.100;2022-10-31T04:49:06;22.98;;;9.75;;
28838;SDS011;15971;50.772;6.100;2022-10-31T04:51:32;25.20;;;10.50;;
28838;SDS011;15971;50.772;6.100;2022-10-31T04:53:57;22.13;;;10.90;;
28838;SDS011;15971;50.772;6.100;2022-10-31T04:56:23;24.58;;;11.00;;
28838;SDS011;15971;50.772;6.100;2022-10-31T04:58:49;23.42;;;11.38;;
28838;SDS011;15971;50.772;6.100;2022-10-31T05:01:14;20.10;;;10.80;;
28838;SDS011;15971;50.772;6.100;2022-10-31T05:03:40;21.60;;;10.05;;
28838;SDS011;15971;50.772;6.100;2022-10-31T05:06:06;27.48;;;11.63;;
28838;SDS011;15971;50.772;6.100;2022-10-31T05:08:32;24.27;;;11.27;;
28838;SDS011;15971;50.772;6.100;2022-10-31T05:11:01;23.85;;;11.88;;
28838;SDS011;15971;50.772;6.100;2022-10-31T05:13:27;22.42;;;11.77;;
28838;SDS011;15971;50.772;6.100;2022-10-31T05:15:53;22.65;;;12.27;;
28838;SDS011;15971;50.772;6.100;2022-10-31T05:18:19;24.27;;;12.25;;
28838;SDS011;15971;50.772;6.100;2022-10-31T05:20:45;23.70;;;11.85;;
28838;SDS011;15971;50.772;6.100;2022-10-31T05:23:10;24.67;;;12.32;;
28838;SDS011;15971;50.772;6.100;2022-10-31T05:25:36;25.85;;;13.15;;
28838;SDS011;15971;50.772;6.100;2022-10-31T05:28:01;29.85;;;13.38;;
28838;SDS011;15971;50.772;6.100;2022-10-31T05:30:28;23.60;;;12.07;;
28838;SDS011;15971;50.772;6.100;2022-10-31T05:32:55;35.60;;;13.15;;
28838;SDS011;15971;50.772;6.100;2022-10-31T05:35:30;23.52;;;12.80;;
28838;SDS011;15971;50.772;6.100;2022-10-31T05:37:57;27.52;;;13.30;;
28838;SDS011;15971;50.772;6.100;2022-10-31T05:40:24;26.35;;;13.38;;
28838;SDS011;15971;50.772;6.100;2022-10-31T05:42:51;30.15;;;13.18;;
28838;SDS011;15971;50.772;6.100;2022-10-31T05:45:17;26.35;;;14.48;;
28838;SDS011;15971;50.772;6.100;2022-10-31T05:47:51;23.42;;;12.80;;
28838;SDS011;15971;50.772;6.100;2022-10-31T05:50:24;25.05;;;13.93;;
28838;SDS011;15971;50.772;6.100;2022-10-31T05:52:55;22.10;;;12.85;;
28838;SDS011;15971;50.772;6.100;2022-10-31T05:55:22;30.75;;;12.95;;
28838;SDS011;15971;50.772;6.100;2022-10-31T05:57:48;20.23;;;12.70;;
28838;SDS011;15971;50.772;6.100;2022-10-31T06:00:14;27.55;;;12.60;;
28838;SDS011;15971;50.772;6.100;2022-10-31T06:02:39;19.58;;;11.30;;
28838;SDS011;15971;50.772;6.100;2022-10-31T06:05:05;18.77;;;11.90;;
28838;SDS011;15971;50.772;6.100;2022-10-31T06:07:33;29.98;;;11.77;;
28838;SDS011;15971;50.772;6.100;2022-10-31T06:10:00;21.67;;;12.10;;
28838;SDS011;15971;50.772;6.100;2022-10-31T06:12:26;21.65;;;11.25;;
28838;SDS011;15971;50.772;6.100;2022-10-31T06:14:51;24.42;;;12.88;;
28838;SDS011;15971;50.772;6.100;2022-10-31T06:17:17;30.42;;;13.00;;
28838;SDS011;15971;50.772;6.100;2022-10-31T06:19:42;27.85;;;12.43;;
28838;SDS011;15971;50.772;6.100;2022-10-31T06:22:08;19.63;;;11.85;;
28838;SDS011;15971;50.772;6.100;2022-10-31T06:24:36;27.55;;;13.43;;
28838;SDS011;15971;50.772;6.100;2022-10-31T06:27:02;28.35;;;13.05;;
28838;SDS011;15971;50.772;6.100;2022-10-31T06:29:27;19.95;;;11.55;;
28838;SDS011;15971;50.772;6.100;2022-10-31T06:31:53;19.95;;;12.32;;
28838;SDS011;15971;50.772;6.100;2022-10-31T06:34:19;21.63;;;12.30;;
28838;SDS011;15971;50.772;6.100;2022-10-31T06:36:45;25.25;;;11.20;;
28838;SDS011;15971;50.772;6.100;2022-10-31T06:39:11;19.88;;;12.35;;
28838;SDS011;15971;50.772;6.100;2022-10-31T06:41:36;22.00;;;12.85;;
28838;SDS011;15971;50.772;6.100;2022-10-31T06:44:04;22.88;;;12.35;;
28838;SDS011;15971;50.772;6.100;2022-10-31T06:46:30;25.42;;;12.35;;
28838;SDS011;15971;50.772;6.100;2022-10-31T06:48:56;25.08;;;12.70;;
28838;SDS011;15971;50.772;6.100;2022-10-31T06:51:21;30.50;;;12.63;;
28838;SDS011;15971;50.772;6.100;2022-10-31T06:53:47;24.17;;;12.35;;
28838;SDS011;15971;50.772;6.100;2022-10-31T06:56:13;24.77;;;13.02;;
28838;SDS011;15971;50.772;6.100;2022-10-31T06:58:38;26.95;;;14.23;;
28838;SDS011;15971;50.772;6.100;2022-10-31T07:01:04;28.88;;;14.25;;
28838;SDS011;15971;50.772;6.100;2022-10-31T07:03:29;34.30;;;14.13;;
28838;SDS011;15971;50.772;6.100;2022-10-31T07:05:55;28.58;;;13.63;;
28838;SDS011;15971;50.772;6.100;2022-10-31T07:08:21;29.83;;;15.30;;
28838;SDS011;15971;50.772;6.100;2022-10-31T07:10:50;40.97;;;16.08;;
28838;SDS011;15971;50.772;6.100;2022-10-31T07:13:17;37.03;;;15.30;;
28838;SDS011;15971;50.772;6.100;2022-10-31T07:15:43;36.90;;;16.63;;
28838;SDS011;15971;50.772;6.100;2022-10-31T07:18:09;34.95;;;17.45;;
28838;SDS011;15971;50.772;6.100;2022-10-31T07:20:36;32.05;;;14.23;;
28838;SDS011;15971;50.772;6.100;2022-10-31T07:23:02;28.83;;;14.82;;
28838;SDS011;15971;50.772;6.100;2022-10-31T07:25:28;31.73;;;13.60;;
28838;SDS011;15971;50.772;6.100;2022-10-31T07:27:53;28.95;;;15.75;;
28838;SDS011;15971;50.772;6.100;2022-10-31T07:30:20;31.17;;;14.57;;
28838;SDS011;15971;50.772;6.100;2022-10-31T07:32:46;32.78;;;17.48;;
28838;SDS011;15971;50.772;6.100;2022-10-31T07:35:14;37.17;;;15.73;;
28838;SDS011;15971;50.772;6.100;2022-10-31T07:37:42;35.72;;;17.23;;
28838;SDS011;15971;50.772;6.100;2022-10-31T07:40:08;29.27;;;16.33;;
28838;SDS011;15971;50.772;6.100;2022-10-31T07:42:38;34.22;;;16.55;;
28838;SDS011;15971;50.772;6.100;2022-10-31T07:45:05;40.83;;;17.02;;
28838;SDS011;15971;50.772;6.100;2022-10-31T07:47:48;35.00;;;17.95;;
28838;SDS011;15971;50.772;6.100;2022-10-31T07:50:27;35.67;;;17.83;;
28838;SDS011;15971;50.772;6.100;2022-10-31T07:52:57;35.30;;;16.30;;
28838;SDS011;15971;50.772;6.100;2022-10-31T07:55:24;39.65;;;18.60;;
28838;SDS011;15971;50.772;6.100;2022-10-31T07:58:00;34.88;;;16.75;;
28838;SDS011;15971;50.772;6.100;2022-10-31T08:00:28;35.03;;;16.17;;
28838;SDS011;15971;50.772;6.100;2022-10-31T08:03:01;46.33;;;19.67;;
28838;SDS011;15971;50.772;6.100;2022-10-31T08:05:28;45.25;;;19.48;;
28838;SDS011;15971;50.772;6.100;2022-10-31T08:07:54;38.95;;;17.73;;
28838;SDS011;15971;50.772;6.100;2022-10-31T08:10:20;43.47;;;18.20;;
28838;SDS011;15971;50.772;6.100;2022-10-31T08:12:46;42.90;;;19.08;;
28838;SDS011;15971;50.772;6.100;2022-10-31T08:15:12;42.80;;;19.20;;
28838;SDS011;15971;50.772;6.100;2022-10-31T08:17:38;44.17;;;17.90;;
28838;SDS011;15971;50.772;6.100;2022-10-31T08:20:04;38.72;;;19.15;;
28838;SDS011;15971;50.772;6.100;2022-10-31T08:22:30;38.47;;;18.20;;
28838;SDS011;15971;50.772;6.100;2022-10-31T08:24:56;79.10;;;43.60;;
28838;SDS011;15971;50.772;6.100;2022-10-31T08:27:22;47.83;;;25.55;;
28838;SDS011;15971;50.772;6.100;2022-10-31T08:29:47;35.05;;;18.27;;
28838;SDS011;15971;50.772;6.100;2022-10-31T08:32:13;44.17;;;19.55;;
28838;SDS011;15971;50.772;6.100;2022-10-31T08:34:38;39.42;;;18.40;;
28838;SDS011;15971;50.772;6.100;2022-10-31T08:37:04;47.85;;;19.73;;
28838;SDS011;15971;50.772;6.100;2022-10-31T08:39:30;39.85;;;19.75;;
28838;SDS011;15971;50.772;6.100;2022-10-31T08:41:55;37.53;;;17.85;;
28838;SDS011;15971;50.772;6.100;2022-10-31T08:44:21;39.53;;;18.90;;
28838;SDS011;15971;50.772;6.100;2022-10-31T08:46:46;51.40;;;18.60;;
28838;SDS011;15971;50.772;6.100;2022-10-31T08:49:12;38.63;;;17.77;;
28838;SDS011;15971;50.772;6.100;2022-10-31T08:51:37;45.55;;;19.10;;
28838;SDS011;15971;50.772;6.100;2022-10-31T08:54:03;37.85;;;18.40;;
28838;SDS011;15971;50.772;6.100;2022-10-31T08:56:29;37.08;;;17.20;;
28838;SDS011;15971;50.772;6.100;2022-10-31T08:58:54;67.50;;;38.88;;
28838;SDS011;15971;50.772;6.100;2022-10-31T09:01:20;40.70;;;22.40;;
28838;SDS011;15971;50.772;6.100;2022-10-31T09:03:45;34.17;;;17.80;;
28838;SDS011;15971;50.772;6.100;2022-10-31T09:06:11;40.42;;;17.52;;
28838;SDS011;15971;50.772;6.100;2022-10-31T09:08:37;38.83;;;17.98;;
28838;SDS011;15971;50.772;6.100;2022-10-31T09:11:03;38.13;;;16.88;;
28838;SDS011;15971;50.772;6.100;2022-10-31T09:13:29;36.83;;;18.85;;
28838;SDS011;15971;50.772;6.100;2022-10-31T09:15:55;35.53;;;17.85;;
28838;SDS011;15971;50.772;6.100;2022-10-31T09:18:22;31.15;;;16.77;;
28838;SDS011;15971;50.772;6.100;2022-10-31T09:20:49;33.00;;;17.35;;
28838;SDS011;15971;50.772;6.100;2022-10-31T09:23:16;33.60;;;18.75;;
28838;SDS011;15971;50.772;6.100;2022-10-31T09:25:44;37.60;;;18.63;;
28838;SDS011;15971;50.772;6.100;2022-10-31T09:28:12;39.92;;;20.75;;
28838;SDS011;15971;50.772;6.100;2022-10-31T09:30:38;42.83;;;20.27;;
28838;SDS011;15971;50.772;6.100;2022-10-31T09:33:10;36.05;;;17.48;;
28838;SDS011;15971;50.772;6.100;2022-10-31T09:35:37;33.17;;;16.63;;
28838;SDS011;15971;50.772;6.100;2022-10-31T09:38:03;35.55;;;17.98;;
28838;SDS011;15971;50.772;6.100;2022-10-31T09:40:32;37.03;;;16.65;;
28838;SDS011;15971;50.772;6.100;2022-10-31T09:43:02;32.53;;;16.67;;
28838;SDS011;15971;50.772;6.100;2022-10-31T09:45:42;37.13;;;17.10;;
28838;SDS011;15971;50.772;6.100;2022-10-31T09:48:17;37.28;;;16.33;;
28838;SDS011;15971;50.772;6.100;2022-10-31T09:51:06;34.95;;;16.05;;
28838;SDS011;15971;50.772;6.100;2022-10-31T09:56:08;30.02;;;14.85;;
28838;SDS011;15971;50.772;6.100;2022-10-31T09:58:47;29.33;;;12.95;;
28838;SDS011;15971;50.772;6.100;2022-10-31T10:01:25;29.70;;;11.25;;
28838;SDS011;15971;50.772;6.100;2022-10-31T10:03:58;25.13;;;10.30;;
28838;SDS011;15971;50.772;6.100;2022-10-31T10:06:28;24.35;;;10.40;;
28838;SDS011;15971;50.772;6.100;2022-10-31T10:08:57;20.13;;;9.93;;
28838;SDS011;15971;50.772;6.100;2022-10-31T10:14:02;18.30;;;8.80;;
28838;SDS011;15971;50.772;6.100;2022-10-31T10:19:40;28.67;;;10.75;;
28838;SDS011;15971;50.772;6.100;2022-10-31T10:27:41;36.53;;;10.77;;
28838;SDS011;15971;50.772;6.100;2022-10-31T10:35:35;21.13;;;9.10;;
28838;SDS011;15971;50.772;6.100;2022-10-31T10:38:10;15.05;;;7.05;;
28838;SDS011;15971;50.772;6.100;2022-10-31T10:40:44;23.35;;;9.02;;
28838;SDS011;15971;50.772;6.100;2022-10-31T10:46:08;20.58;;;8.00;;
28838;SDS011;15971;50.772;6.100;2022-10-31T10:49:22;15.20;;;6.95;;
28838;SDS011;15971;50.772;6.100;2022-10-31T10:52:06;19.35;;;7.50;;
28838;SDS011;15971;50.772;6.100;2022-10-31T10:57:22;19.63;;;8.32;;
28838;SDS011;15971;50.772;6.100;2022-10-31T10:59:54;24.25;;;8.27;;
28838;SDS011;15971;50.772;6.100;2022-10-31T11:04:55;20.02;;;8.73;;
28838;SDS011;15971;50.772;6.100;2022-10-31T11:07:22;17.52;;;6.53;;
28838;SDS011;15971;50.772;6.100;2022-10-31T11:09:48;12.98;;;6.75;;
28838;SDS011;15971;50.772;6.100;2022-10-31T11:12:21;28.27;;;7.57;;
28838;SDS011;15971;50.772;6.100;2022-10-31T11:14:54;17.55;;;7.57;;
28838;SDS011;15971;50.772;6.100;2022-10-31T11:17:38;17.42;;;7.03;;
28838;SDS011;15971;50.772;6.100;2022-10-31T11:22:36;16.08;;;7.15;;
28838;SDS011;15971;50.772;6.100;2022-10-31T11:27:46;15.75;;;6.95;;
28838;SDS011;15971;50.772;6.100;2022-10-31T11:30:23;20.35;;;7.55;;
28838;SDS011;15971;50.772;6.100;2022-10-31T11:32:49;18.02;;;7.55;;
28838;SDS011;15971;50.772;6.100;2022-10-31T11:35:17;20.00;;;6.90;;
28838;SDS011;15971;50.772;6.100;2022-10-31T11:37:45;18.17;;;7.40;;
28838;SDS011;15971;50.772;6.100;2022-10-31T11:40:17;15.85;;;6.45;;
28838;SDS011;15971;50.772;6.100;2022-10-31T11:42:45;19.20;;;7.07;;
28838;SDS011;15971;50.772;6.100;2022-10-31T11:45:14;18.90;;;6.22;;
28838;SDS011;15971;50.772;6.100;2022-10-31T11:47:50;21.23;;;6.90;;
28838;SDS011;15971;50.772;6.100;2022-10-31T11:50:24;15.45;;;5.82;;
28838;SDS011;15971;50.772;6.100;2022-10-31T11:53:27;20.45;;;6.05;;
28838;SDS011;15971;50.772;6.100;2022-10-31T11:56:25;14.88;;;6.25;;
28838;SDS011;15971;50.772;6.100;2022-10-31T11:58:54;23.63;;;6.60;;
28838;SDS011;15971;50.772;6.100;2022-10-31T12:01:26;19.95;;;6.88;;
28838;SDS011;15971;50.772;6.100;2022-10-31T12:06:25;22.33;;;7.32;;
28838;SDS011;15971;50.772;6.100;2022-10-31T12:08:57;23.10;;;6.05;;
28838;SDS011;15971;50.772;6.100;2022-10-31T12:14:23;11.18;;;5.13;;
28838;SDS011;15971;50.772;6.100;2022-10-31T12:17:21;22.77;;;5.78;;
28838;SDS011;15971;50.772;6.100;2022-10-31T12:20:07;11.88;;;4.43;;
28838;SDS011;15971;50.772;6.100;2022-10-31T12:30:58;13.15;;;3.55;;
28838;SDS011;15971;50.772;6.100;2022-10-31T12:36:12;13.85;;;3.53;;
28838;SDS011;15971;50.772;6.100;2022-10-31T12:44:17;15.63;;;3.85;;
28838;SDS011;15971;50.772;6.100;2022-10-31T12:52:20;16.25;;;3.85;;
28838;SDS011;15971;50.772;6.100;2022-10-31T13:00:20;14.85;;;4.45;;
28838;SDS011;15971;50.772;6.100;2022-10-31T13:05:43;9.73;;;5.25;;
28838;SDS011;15971;50.772;6.100;2022-10-31T13:08:15;10.15;;;3.65;;
28838;SDS011;15971;50.772;6.100;2022-10-31T13:10:51;12.00;;;3.85;;
28838;SDS011;15971;50.772;6.100;2022-10-31T13:16:15;11.70;;;4.05;;
28838;SDS011;15971;50.772;6.100;2022-10-31T13:18:52;9.85;;;4.00;;
28838;SDS011;15971;50.772;6.100;2022-10-31T13:21:23;15.50;;;4.38;;
28838;SDS011;15971;50.772;6.100;2022-10-31T13:23:52;13.05;;;4.03;;
28838;SDS011;15971;50.772;6.100;2022-10-31T13:26:21;15.93;;;4.30;;
28838;SDS011;15971;50.772;6.100;2022-10-31T13:28:59;11.48;;;3.58;;
28838;SDS011;15971;50.772;6.100;2022-10-31T13:31:39;9.48;;;3.72;;
28838;SDS011;15971;50.772;6.100;2022-10-31T13:34:09;10.40;;;3.42;;
28838;SDS011;15971;50.772;6.100;2022-10-31T13:36:47;15.98;;;3.92;;
28838;SDS011;15971;50.772;6.100;2022-10-31T13:39:42;6.97;;;3.33;;
28838;SDS011;15971;50.772;6.100;2022-10-31T13:45:18;15.30;;;4.32;;
28838;SDS011;15971;50.772;6.100;2022-10-31T13:50:39;12.68;;;3.83;;
28838;SDS011;15971;50.772;6.100;2022-10-31T13:58:37;10.32;;;3.50;;
28838;SDS011;15971;50.772;6.100;2022-10-31T14:01:16;13.63;;;4.30;;
28838;SDS011;15971;50.772;6.100;2022-10-31T14:03:45;13.75;;;4.43;;
28838;SDS011;15971;50.772;6.100;2022-10-31T14:06:12;13.63;;;3.92;;
28838;SDS011;15971;50.772;6.100;2022-10-31T14:08:41;12.40;;;3.50;;
28838;SDS011;15971;50.772;6.100;2022-10-31T14:11:24;13.77;;;3.50;;
28838;SDS011;15971;50.772;6.100;2022-10-31T14:13:52;11.10;;;3.63;;
28838;SDS011;15971;50.772;6.100;2022-10-31T14:16:24;8.85;;;3.42;;
28838;SDS011;15971;50.772;6.100;2022-10-31T14:21:31;8.00;;;3.70;;
28838;SDS011;15971;50.772;6.100;2022-10-31T14:24:02;9.38;;;4.05;;
28838;SDS011;15971;50.772;6.100;2022-10-31T14:26:51;12.77;;;4.28;;
28838;SDS011;15971;50.772;6.100;2022-10-31T14:37:12;12.40;;;4.93;;
28838;SDS011;15971;50.772;6.100;2022-10-31T14:50:58;15.35;;;6.10;;
28838;SDS011;15971;50.772;6.100;2022-10-31T14:53:36;21.17;;;5.70;;
28838;SDS011;15971;50.772;6.100;2022-10-31T14:56:19;14.07;;;6.13;;
28838;SDS011;15971;50.772;6.100;2022-10-31T14:58:48;22.05;;;5.40;;
28838;SDS011;15971;50.772;6.100;2022-10-31T15:04:11;9.85;;;5.22;;
28838;SDS011;15971;50.772;6.100;2022-10-31T15:06:41;20.88;;;6.32;;
28838;SDS011;15971;50.772;6.100;2022-10-31T15:09:20;20.75;;;7.57;;
28838;SDS011;15971;50.772;6.100;2022-10-31T15:11:47;18.83;;;6.90;;
28838;SDS011;15971;50.772;6.100;2022-10-31T15:14:24;27.75;;;7.72;;
28838;SDS011;15971;50.772;6.100;2022-10-31T15:16:55;25.05;;;7.28;;
28838;SDS011;15971;50.772;6.100;2022-10-31T15:19:26;21.70;;;7.35;;
28838;SDS011;15971;50.772;6.100;2022-10-31T15:21:55;19.20;;;6.35;;
28838;SDS011;15971;50.772;6.100;2022-10-31T15:24:22;14.80;;;6.55;;
28838;SDS011;15971;50.772;6.100;2022-10-31T15:26:59;12.95;;;5.75;;
28838;SDS011;15971;50.772;6.100;2022-10-31T15:29:25;14.73;;;5.43;;
28838;SDS011;15971;50.772;6.100;2022-10-31T15:31:58;10.82;;;5.60;;
28838;SDS011;15971;50.772;6.100;2022-10-31T15:37:02;21.25;;;5.95;;
28838;SDS011;15971;50.772;6.100;2022-10-31T15:39:28;14.02;;;6.50;;
28838;SDS011;15971;50.772;6.100;2022-10-31T15:41:55;11.32;;;5.43;;
28838;SDS011;15971;50.772;6.100;2022-10-31T15:44:36;18.20;;;6.63;;
28838;SDS011;15971;50.772;6.100;2022-10-31T15:47:26;17.15;;;6.30;;
28838;SDS011;15971;50.772;6.100;2022-10-31T15:49:53;19.65;;;7.30;;
28838;SDS011;15971;50.772;6.100;2022-10-31T15:55:04;14.35;;;5.80;;
28838;SDS011;15971;50.772;6.100;2022-10-31T15:57:43;16.30;;;5.35;;
28838;SDS011;15971;50.772;6.100;2022-10-31T16:00:26;16.50;;;5.05;;
28838;SDS011;15971;50.772;6.100;2022-10-31T16:05:44;20.50;;;6.25;;
28838;SDS011;15971;50.772;6.100;2022-10-31T16:13:41;20.25;;;9.13;;
28838;SDS011;15971;50.772;6.100;2022-10-31T16:16:40;14.20;;;7.10;;
28838;SDS011;15971;50.772;6.100;2022-10-31T16:19:12;24.50;;;8.18;;
28838;SDS011;15971;50.772;6.100;2022-10-31T16:21:42;17.30;;;6.20;;
28838;SDS011;15971;50.772;6.100;2022-10-31T16:26:41;21.73;;;6.93;;
28838;SDS011;15971;50.772;6.100;2022-10-31T16:29:23;17.48;;;6.07;;
28838;SDS011;15971;50.772;6.100;2022-10-31T16:31:51;16.30;;;5.55;;
28838;SDS011;15971;50.772;6.100;2022-10-31T16:34:19;10.23;;;5.15;;
28838;SDS011;15971;50.772;6.100;2022-10-31T16:36:46;10.98;;;4.57;;
28838;SDS011;15971;50.772;6.100;2022-10-31T16:39:12;10.80;;;4.03;;
28838;SDS011;15971;50.772;6.100;2022-10-31T16:41:39;14.32;;;4.60;;
28838;SDS011;15971;50.772;6.100;2022-10-31T16:44:13;13.02;;;4.63;;
28838;SDS011;15971;50.772;6.100;2022-10-31T16:46:40;10.55;;;3.95;;
28838;SDS011;15971;50.772;6.100;2022-10-31T16:49:07;10.93;;;4.10;;
28838;SDS011;15971;50.772;6.100;2022-10-31T16:51:34;14.32;;;3.70;;
28838;SDS011;15971;50.772;6.100;2022-10-31T16:54:00;10.13;;;4.80;;
28838;SDS011;15971;50.772;6.100;2022-10-31T16:56:32;11.60;;;4.30;;
28838;SDS011;15971;50.772;6.100;2022-10-31T16:59:01;15.27;;;4.93;;
28838;SDS011;15971;50.772;6.100;2022-10-31T17:01:29;12.00;;;5.70;;
28838;SDS011;15971;50.772;6.100;2022-10-31T17:03:56;8.93;;;4.13;;
28838;SDS011;15971;50.772;6.100;2022-10-31T17:06:21;15.30;;;3.97;;
28838;SDS011;15971;50.772;6.100;2022-10-31T17:08:47;12.50;;;3.92;;
28838;SDS011;15971;50.772;6.100;2022-10-31T17:11:19;11.55;;;3.40;;
28838;SDS011;15971;50.772;6.100;2022-10-31T17:13:47;14.85;;;3.90;;
28838;SDS011;15971;50.772;6.100;2022-10-31T17:16:13;10.10;;;5.13;;
28838;SDS011;15971;50.772;6.100;2022-10-31T17:18:39;12.88;;;3.67;;
28838;SDS011;15971;50.772;6.100;2022-10-31T17:21:05;9.98;;;3.50;;